createdAt,value
2022-12-01T00:02:10.082Z,-0.50
2022-12-01T00:04:36.983Z,-0.50
2022-12-01T00:07:03.876Z,-0.40
2022-12-01T00:09:49.867Z,-0.50
2022-12-01T00:12:16.740Z,-0.40
2022-12-01T00:14:43.681Z,-0.50
2022-12-01T00:17:10.539Z,-0.50
2022-12-01T00:19:37.264Z,-0.50
2022-12-01T00:22:04.351Z,-0.50
2022-12-01T00:24:31.253Z,-0.50
2022-12-01T00:26:58.061Z,-0.50
2022-12-01T00:29:24.856Z,-0.60
2022-12-01T00:31:51.709Z,-0.60
2022-12-01T00:34:22.490Z,-0.60
2022-12-01T00:36:49.258Z,-0.50
2022-12-01T00:39:16.031Z,-0.50
2022-12-01T00:41:42.829Z,-0.50
2022-12-01T00:44:09.768Z,-0.50
2022-12-01T00:46:36.585Z,-0.50
2022-12-01T00:49:03.497Z,-0.50
2022-12-01T00:51:30.325Z,-0.50
2022-12-01T00:53:57.368Z,-0.50
2022-12-01T00:56:24.078Z,-0.50
2022-12-01T00:58:50.854Z,-0.50
2022-12-01T01:01:17.720Z,-0.50
2022-12-01T01:03:44.544Z,-0.50
2022-12-01T01:06:12.186Z,-0.50
2022-12-01T01:08:39.739Z,-0.50
2022-12-01T01:11:07.107Z,-0.50
2022-12-01T01:13:34.293Z,-0.50
2022-12-01T01:16:08.024Z,-0.50
2022-12-01T01:18:34.855Z,-0.50
2022-12-01T01:21:06.536Z,-0.50
2022-12-01T01:23:36.116Z,-0.50
2022-12-01T01:26:04.318Z,-0.50
2022-12-01T01:28:31.291Z,-0.50
2022-12-01T01:30:58.704Z,-0.50
2022-12-01T01:33:25.538Z,-0.50
2022-12-01T01:35:52.327Z,-0.40
2022-12-01T01:38:19.138Z,-0.40
2022-12-01T01:40:46.800Z,-0.50
2022-12-01T01:43:17.094Z,-0.50
2022-12-01T01:45:44.394Z,-0.50
2022-12-01T01:48:13.040Z,-0.50
2022-12-01T01:50:39.994Z,-0.50
2022-12-01T01:53:12.781Z,-0.50
2022-12-01T01:55:39.678Z,-0.50
2022-12-01T01:58:09.174Z,-0.50
2022-12-01T02:00:36.103Z,-0.50
2022-12-01T02:03:03.959Z,-0.60
2022-12-01T02:05:32.242Z,-0.50
2022-12-01T02:08:00.322Z,-0.50
2022-12-01T02:10:47.345Z,-0.50
2022-12-01T02:13:14.320Z,-0.50
2022-12-01T02:15:46.817Z,-0.50
2022-12-01T02:18:22.250Z,-0.50
2022-12-01T02:20:58.105Z,-0.50
2022-12-01T02:23:33.317Z,-0.50
2022-12-01T02:26:03.179Z,-0.50
2022-12-01T02:28:32.654Z,-0.60
2022-12-01T02:31:15.233Z,-0.50
2022-12-01T02:34:02.338Z,-0.50
2022-12-01T02:36:37.133Z,-0.60
2022-12-01T02:39:03.900Z,-0.60
2022-12-01T02:41:33.184Z,-0.60
2022-12-01T02:44:05.862Z,-0.50
2022-12-01T02:46:37.692Z,-0.60
2022-12-01T02:49:06.992Z,-0.60
2022-12-01T02:51:35.367Z,-0.60
2022-12-01T02:54:02.989Z,-0.60
2022-12-01T02:56:29.936Z,-0.60
2022-12-01T02:58:56.888Z,-0.60
2022-12-01T03:01:33.071Z,-0.50
2022-12-01T03:04:05.793Z,-0.50
2022-12-01T03:06:36.805Z,-0.60
2022-12-01T03:09:06.649Z,-0.50
2022-12-01T03:11:42.760Z,-0.50
2022-12-01T03:14:35.716Z,-0.60
2022-12-01T03:17:08.410Z,-0.60
2022-12-01T03:19:43.778Z,-0.60
2022-12-01T03:22:12.815Z,-0.60
2022-12-01T03:24:40.938Z,-0.60
2022-12-01T03:27:10.020Z,-0.60
2022-12-01T03:29:40.307Z,-0.60
2022-12-01T03:32:15.874Z,-0.60
2022-12-01T03:34:46.250Z,-0.60
2022-12-01T03:37:18.109Z,-0.60
2022-12-01T03:39:46.752Z,-0.60
2022-12-01T03:42:24.662Z,-0.10
2022-12-01T03:44:56.846Z,-0.60
2022-12-01T03:47:25.152Z,-0.60
2022-12-01T03:49:53.033Z,-0.60
2022-12-01T03:52:19.743Z,-0.60
2022-12-01T03:54:55.499Z,-0.60
2022-12-01T03:57:28.509Z,-0.60
2022-12-01T03:59:55.511Z,-0.60
2022-12-01T04:02:25.502Z,-0.70
2022-12-01T04:04:52.328Z,-0.70
2022-12-01T04:07:19.157Z,1.10
2022-12-01T04:09:46.061Z,-0.70
2022-12-01T04:12:29.563Z,-0.60
2022-12-01T04:14:57.423Z,-0.70
2022-12-01T04:17:24.975Z,-0.70
2022-12-01T04:19:52.018Z,-0.70
2022-12-01T04:22:19.126Z,-0.80
2022-12-01T04:24:45.977Z,-0.80
2022-12-01T04:27:13.135Z,-0.80
2022-12-01T04:29:39.958Z,-0.70
2022-12-01T04:32:06.711Z,-0.80
2022-12-01T04:34:33.581Z,-0.80
2022-12-01T04:37:00.423Z,-0.70
2022-12-01T04:39:27.281Z,-0.80
2022-12-01T04:41:54.086Z,-0.80
2022-12-01T04:44:20.949Z,-0.70
2022-12-01T04:46:47.720Z,-0.80
2022-12-01T04:49:14.515Z,-0.80
2022-12-01T04:51:41.253Z,-0.80
2022-12-01T04:54:08.062Z,-0.70
2022-12-01T04:56:34.852Z,-0.80
2022-12-01T04:59:01.721Z,-0.70
2022-12-01T05:01:28.736Z,-0.70
2022-12-01T05:03:55.610Z,-0.80
2022-12-01T05:06:23.626Z,-0.70
2022-12-01T05:08:50.684Z,-0.80
2022-12-01T05:11:18.137Z,-0.80
2022-12-01T05:13:45.687Z,-0.90
2022-12-01T05:16:13.659Z,-0.80
2022-12-01T05:18:41.214Z,-0.80
2022-12-01T05:21:09.342Z,-0.80
2022-12-01T05:23:36.667Z,-0.80
2022-12-01T05:26:04.598Z,-0.90
2022-12-01T05:28:31.484Z,-0.80
2022-12-01T05:30:58.329Z,-0.90
2022-12-01T05:33:25.641Z,-0.90
2022-12-01T05:35:52.385Z,-0.90
2022-12-01T05:38:19.754Z,-0.90
2022-12-01T05:40:53.441Z,-0.90
2022-12-01T05:43:26.908Z,-1.00
2022-12-01T05:45:56.159Z,-1.00
2022-12-01T05:48:22.949Z,-0.90
2022-12-01T05:50:49.689Z,-0.90
2022-12-01T05:53:16.554Z,-1.00
2022-12-01T05:55:43.310Z,-1.10
2022-12-01T05:58:10.493Z,-1.00
2022-12-01T06:00:45.056Z,-1.00
2022-12-01T06:03:12.806Z,-1.00
2022-12-01T06:05:39.621Z,-1.10
2022-12-01T06:08:06.549Z,-1.00
2022-12-01T06:10:33.375Z,-1.10
2022-12-01T06:13:00.111Z,-1.10
2022-12-01T06:15:26.956Z,-1.20
2022-12-01T06:17:53.758Z,-1.30
2022-12-01T06:20:20.579Z,-1.30
2022-12-01T06:22:48.310Z,-1.30
2022-12-01T06:25:15.113Z,-1.30
2022-12-01T06:27:41.870Z,-1.30
2022-12-01T06:30:09.287Z,-1.30
2022-12-01T06:32:36.351Z,-1.30
2022-12-01T06:35:03.164Z,-1.30
2022-12-01T06:37:30.000Z,-1.30
2022-12-01T06:39:56.902Z,-1.30
2022-12-01T06:42:23.713Z,-1.30
2022-12-01T06:44:52.596Z,-1.40
2022-12-01T06:47:19.419Z,-1.40
2022-12-01T06:49:46.188Z,-1.30
2022-12-01T06:52:12.984Z,-1.30
2022-12-01T06:54:39.889Z,-1.30
2022-12-01T06:57:07.011Z,-1.40
2022-12-01T06:59:34.110Z,-1.50
2022-12-01T07:02:03.106Z,-1.50
2022-12-01T07:04:30.145Z,-1.40
2022-12-01T07:06:57.041Z,-1.50
2022-12-01T07:09:24.045Z,-1.50
2022-12-01T07:11:50.858Z,-1.50
2022-12-01T07:14:25.704Z,-1.50
2022-12-01T07:16:52.950Z,-1.50
2022-12-01T07:19:21.733Z,-1.50
2022-12-01T07:21:48.436Z,-1.50
2022-12-01T07:24:15.182Z,-1.50
2022-12-01T07:26:42.508Z,-1.50
2022-12-01T07:29:10.426Z,-1.50
2022-12-01T07:31:37.654Z,-1.50
2022-12-01T07:34:04.734Z,-1.40
2022-12-01T07:36:31.491Z,-1.50
2022-12-01T07:38:58.241Z,-1.50
2022-12-01T07:41:25.121Z,-1.50
2022-12-01T07:43:51.958Z,-1.50
2022-12-01T07:46:24.009Z,-1.50
2022-12-01T07:48:51.751Z,-1.50
2022-12-01T07:51:18.909Z,-1.50
2022-12-01T07:53:46.702Z,-1.50
2022-12-01T07:56:13.979Z,-1.50
2022-12-01T07:58:40.767Z,-1.40
2022-12-01T08:01:08.985Z,-1.40
2022-12-01T08:03:36.331Z,-1.40
2022-12-01T08:06:03.526Z,-0.90
2022-12-01T08:08:30.906Z,-1.50
2022-12-01T08:11:00.538Z,-1.40
2022-12-01T08:13:27.385Z,-1.40
2022-12-01T08:18:21.644Z,-1.40
2022-12-01T08:20:48.693Z,-1.40
2022-12-01T08:23:16.957Z,-1.50
2022-12-01T08:25:43.732Z,-1.40
2022-12-01T08:28:10.588Z,-1.40
2022-12-01T08:30:37.388Z,-1.50
2022-12-01T08:33:04.251Z,-1.40
2022-12-01T08:35:31.139Z,-1.40
2022-12-01T08:37:57.993Z,-1.30
2022-12-01T08:40:24.808Z,-1.30
2022-12-01T08:42:54.489Z,-1.40
2022-12-01T08:45:23.173Z,-1.50
2022-12-01T08:47:50.310Z,-1.30
2022-12-01T08:50:17.265Z,-1.30
2022-12-01T08:52:44.085Z,-1.30
2022-12-01T08:55:10.902Z,-1.30
2022-12-01T08:58:20.258Z,-1.30
2022-12-01T09:00:47.043Z,-1.30
2022-12-01T09:03:13.877Z,-1.30
2022-12-01T09:05:40.731Z,-1.30
2022-12-01T09:08:30.552Z,-0.70
2022-12-01T09:10:57.821Z,-1.30
2022-12-01T09:13:24.980Z,-0.90
2022-12-01T09:15:55.756Z,-1.20
2022-12-01T09:18:22.716Z,-1.30
2022-12-01T09:20:49.832Z,-1.30
2022-12-01T09:23:16.709Z,-1.20
2022-12-01T09:25:46.106Z,-1.30
2022-12-01T09:28:13.072Z,-1.30
2022-12-01T09:30:39.910Z,-1.30
2022-12-01T09:33:06.892Z,-1.20
2022-12-01T09:35:33.732Z,-1.20
2022-12-01T09:38:00.695Z,-1.30
2022-12-01T09:40:32.040Z,-1.30
2022-12-01T09:43:00.939Z,-1.30
2022-12-01T09:45:33.020Z,-1.30
2022-12-01T09:48:01.023Z,-1.30
2022-12-01T09:50:30.185Z,-1.20
2022-12-01T09:53:07.361Z,-1.30
2022-12-01T09:55:34.769Z,-1.30
2022-12-01T09:58:03.486Z,-1.30
2022-12-01T10:00:35.549Z,-1.20
2022-12-01T10:03:21.320Z,-4.60
2022-12-01T10:06:26.788Z,-1.30
2022-12-01T10:09:03.602Z,-1.20
2022-12-01T10:11:39.718Z,-1.20
2022-12-01T10:14:09.213Z,-1.20
2022-12-01T10:16:39.870Z,-1.20
2022-12-01T10:19:15.449Z,-1.10
2022-12-01T10:21:53.844Z,-1.00
2022-12-01T10:24:38.757Z,-1.00
2022-12-01T10:29:35.695Z,-1.20
2022-12-01T10:32:05.202Z,-1.20
2022-12-01T10:34:36.578Z,-1.10
2022-12-01T10:37:03.502Z,-1.10
2022-12-01T10:39:33.401Z,-1.00
2022-12-01T10:42:20.450Z,-0.90
2022-12-01T10:44:47.436Z,-1.00
2022-12-01T10:47:21.936Z,-1.00
2022-12-01T10:49:49.516Z,-1.00
2022-12-01T10:52:31.886Z,-0.90
2022-12-01T10:54:59.093Z,-1.00
2022-12-01T10:57:26.986Z,-0.90
2022-12-01T10:59:59.884Z,-0.90
2022-12-01T11:02:28.112Z,-0.80
2022-12-01T11:04:57.462Z,-0.80
2022-12-01T11:07:29.819Z,-0.90
2022-12-01T11:10:06.076Z,-0.90
2022-12-01T11:12:33.133Z,-1.00
2022-12-01T11:15:02.657Z,-1.00
2022-12-01T11:17:32.702Z,-1.10
2022-12-01T11:19:59.729Z,-1.10
2022-12-01T11:22:27.698Z,-1.10
2022-12-01T11:24:54.375Z,-1.10
2022-12-01T11:27:22.500Z,-0.60
2022-12-01T11:29:50.960Z,-1.10
2022-12-01T11:32:18.299Z,-1.10
2022-12-01T11:34:56.433Z,-1.10
2022-12-01T11:37:24.641Z,-1.10
2022-12-01T11:39:52.627Z,-1.10
2022-12-01T11:42:25.388Z,-1.00
2022-12-01T11:44:59.355Z,-1.10
2022-12-01T11:47:26.868Z,-1.10
2022-12-01T11:50:01.030Z,-1.00
2022-12-01T11:52:30.673Z,-1.10
2022-12-01T11:54:59.418Z,-1.10
2022-12-01T11:57:35.338Z,-1.10
2022-12-01T12:00:03.549Z,-1.10
2022-12-01T12:02:37.885Z,-1.20
2022-12-01T12:05:14.092Z,-1.10
2022-12-01T12:07:58.931Z,-1.20
2022-12-01T12:10:44.854Z,-1.20
2022-12-01T12:13:11.859Z,-1.30
2022-12-01T12:15:38.816Z,-1.30
2022-12-01T12:18:14.452Z,-1.30
2022-12-01T12:20:50.177Z,-1.30
2022-12-01T12:23:24.707Z,-1.30
2022-12-01T12:25:52.425Z,-1.40
2022-12-01T12:28:37.422Z,-1.40
2022-12-01T12:31:19.801Z,-1.40
2022-12-01T12:33:52.481Z,-1.40
2022-12-01T12:36:19.694Z,-1.40
2022-12-01T12:38:49.616Z,-1.30
2022-12-01T12:41:19.563Z,-1.30
2022-12-01T12:44:00.523Z,-1.30
2022-12-01T12:46:27.780Z,-1.30
2022-12-01T12:49:19.731Z,-1.30
2022-12-01T12:51:51.701Z,-1.40
2022-12-01T12:54:23.665Z,-1.40
2022-12-01T12:56:54.189Z,-1.40
2022-12-01T12:59:30.162Z,-1.50
2022-12-01T13:02:16.274Z,-1.50
2022-12-01T13:04:51.745Z,-1.50
2022-12-01T13:07:21.352Z,-1.60
2022-12-01T13:09:52.261Z,-1.60
2022-12-01T13:12:33.028Z,-1.70
2022-12-01T13:15:20.073Z,-1.70
2022-12-01T13:17:58.556Z,-1.70
2022-12-01T13:20:27.820Z,-1.70
2022-12-01T13:22:55.982Z,-1.70
2022-12-01T13:25:41.653Z,-1.80
2022-12-01T13:28:28.672Z,-1.90
2022-12-01T13:31:02.024Z,-1.90
2022-12-01T13:33:29.090Z,-1.80
2022-12-01T13:36:22.600Z,-1.90
2022-12-01T13:38:57.140Z,-1.80
2022-12-01T13:41:26.556Z,-1.90
2022-12-01T13:43:56.810Z,-2.00
2022-12-01T13:46:28.518Z,-1.90
2022-12-01T13:48:57.065Z,-1.90
2022-12-01T13:51:24.618Z,-1.90
2022-12-01T13:53:57.397Z,-1.90
2022-12-01T13:56:25.817Z,-1.90
2022-12-01T13:58:54.218Z,-1.90
2022-12-01T14:01:21.514Z,-2.00
2022-12-01T14:04:17.783Z,-2.00
2022-12-01T14:06:52.519Z,-2.00
2022-12-01T14:09:51.739Z,-2.00
2022-12-01T14:12:23.849Z,-1.90
2022-12-01T14:14:56.825Z,-1.90
2022-12-01T14:17:28.794Z,-1.90
2022-12-01T14:19:55.924Z,-1.90
2022-12-01T14:22:50.503Z,-1.90
2022-12-01T14:25:20.329Z,-1.90
2022-12-01T14:27:48.727Z,-1.80
2022-12-01T14:30:34.432Z,-1.90
2022-12-01T14:33:19.782Z,-2.00
2022-12-01T14:35:46.590Z,-2.00
2022-12-01T14:38:13.366Z,-2.00
2022-12-01T14:40:40.351Z,-2.00
2022-12-01T14:43:30.283Z,-2.00
2022-12-01T14:46:04.753Z,-2.00
2022-12-01T14:48:45.901Z,-2.00
2022-12-01T14:51:26.650Z,-2.00
2022-12-01T14:53:54.306Z,-2.00
2022-12-01T14:56:22.972Z,-2.00
2022-12-01T14:58:56.997Z,-2.00
2022-12-01T15:01:24.424Z,-2.00
2022-12-01T15:03:52.422Z,-2.10
2022-12-01T15:06:20.682Z,-2.20
2022-12-01T15:09:31.506Z,-2.20
2022-12-01T15:11:57.837Z,-1.20
2022-12-01T15:14:28.857Z,-2.30
2022-12-01T15:16:55.743Z,-2.30
2022-12-01T15:19:33.077Z,-2.20
2022-12-01T15:22:02.778Z,-2.30
2022-12-01T15:24:31.025Z,-2.30
2022-12-01T15:27:03.476Z,-2.30
2022-12-01T15:29:37.061Z,-2.30
2022-12-01T15:32:08.124Z,-2.40
2022-12-01T15:34:46.001Z,-2.40
2022-12-01T15:37:35.209Z,-2.40
2022-12-01T15:40:47.763Z,-2.40
2022-12-01T15:43:06.654Z,-2.50
2022-12-01T15:45:46.353Z,-2.50
2022-12-01T15:48:17.954Z,-2.50
2022-12-01T15:50:49.232Z,-2.60
2022-12-01T15:53:27.661Z,-2.70
2022-12-01T15:55:58.812Z,-2.70
2022-12-01T15:58:27.507Z,-2.80
2022-12-01T16:00:57.236Z,-2.90
2022-12-01T16:03:24.096Z,-2.70
2022-12-01T16:05:51.016Z,-2.80
2022-12-01T16:08:19.684Z,-2.80
2022-12-01T16:11:06.448Z,-2.90
2022-12-01T16:13:47.888Z,-2.90
2022-12-01T16:16:30.193Z,-3.00
2022-12-01T16:18:59.990Z,-3.00
2022-12-01T16:21:27.251Z,-3.10
2022-12-01T16:24:04.745Z,-3.10
2022-12-01T16:26:32.550Z,-3.10
2022-12-01T16:28:59.496Z,-3.10
2022-12-01T16:31:26.850Z,-3.10
2022-12-01T16:34:04.159Z,-3.10
2022-12-01T16:36:36.553Z,-3.10
2022-12-01T16:39:06.175Z,-3.20
2022-12-01T16:41:38.429Z,-3.20
2022-12-01T16:44:27.707Z,-3.30
2022-12-01T16:46:52.252Z,-3.40
2022-12-01T16:49:19.059Z,-3.40
2022-12-01T16:52:11.185Z,-3.40
2022-12-01T16:54:32.567Z,-3.50
2022-12-01T16:56:59.314Z,-3.50
2022-12-01T16:59:26.459Z,-3.50
2022-12-01T17:01:53.266Z,-3.50
2022-12-01T17:04:20.049Z,-3.50
2022-12-01T17:06:46.797Z,-1.70
2022-12-01T17:09:13.563Z,-3.50
2022-12-01T17:11:40.303Z,-2.80
2022-12-01T17:14:07.178Z,-3.60
2022-12-01T17:16:34.036Z,-3.70
2022-12-01T17:19:01.360Z,-3.70
2022-12-01T17:21:28.125Z,-3.70
2022-12-01T17:23:55.210Z,-3.60
2022-12-01T17:26:22.093Z,-3.70
2022-12-01T17:28:49.087Z,-3.50
2022-12-01T17:31:15.953Z,-3.50
2022-12-01T17:33:43.260Z,-3.50
2022-12-01T17:36:11.100Z,-3.10
2022-12-01T17:38:38.693Z,-3.50
2022-12-01T17:41:06.998Z,-3.50
2022-12-01T17:43:34.768Z,-3.50
2022-12-01T17:46:02.045Z,-1.70
2022-12-01T17:48:29.223Z,-3.50
2022-12-01T17:50:56.104Z,-3.50
2022-12-01T17:53:22.860Z,-3.50
2022-12-01T17:55:49.825Z,-3.50
2022-12-01T17:58:21.272Z,-3.50
2022-12-01T18:00:49.078Z,-3.40
2022-12-01T18:03:15.921Z,-3.40
2022-12-01T18:05:42.657Z,-3.40
2022-12-01T18:08:09.593Z,-3.50
2022-12-01T18:10:36.472Z,-3.50
2022-12-01T18:13:03.425Z,-3.60
2022-12-01T18:15:34.525Z,-3.60
2022-12-01T18:18:01.635Z,-3.70
2022-12-01T18:20:28.401Z,-3.70
2022-12-01T18:22:55.236Z,-3.70
2022-12-01T18:25:22.033Z,-3.80
2022-12-01T18:27:48.877Z,-3.80
2022-12-01T18:30:15.634Z,-3.80
2022-12-01T18:32:42.352Z,-3.70
2022-12-01T18:35:09.317Z,-3.80
2022-12-01T18:37:36.853Z,-3.80
2022-12-01T18:40:03.777Z,-3.80
2022-12-01T18:42:30.513Z,-3.90
2022-12-01T18:44:57.444Z,-3.90
2022-12-01T18:47:28.240Z,-4.00
2022-12-01T18:49:55.079Z,-4.00
2022-12-01T18:52:22.235Z,-4.00
2022-12-01T18:54:49.048Z,-4.00
2022-12-01T18:57:16.074Z,-3.90
2022-12-01T18:59:42.868Z,-4.00
2022-12-01T19:02:09.992Z,-3.90
2022-12-01T19:04:36.811Z,-3.90
2022-12-01T19:07:03.553Z,-3.90
2022-12-01T19:09:30.293Z,-3.90
2022-12-01T19:11:59.996Z,-3.90
2022-12-01T19:14:28.150Z,-3.90
2022-12-01T19:16:55.692Z,-3.90
2022-12-01T19:19:22.670Z,-3.90
2022-12-01T19:21:50.539Z,-3.90
2022-12-01T19:24:17.293Z,-4.00
2022-12-01T19:26:44.081Z,-4.00
2022-12-01T19:29:11.003Z,-4.00
2022-12-01T19:31:37.942Z,-4.00
2022-12-01T19:34:04.864Z,-4.00
2022-12-01T19:36:31.636Z,-4.00
2022-12-01T19:39:00.160Z,-4.10
2022-12-01T19:41:27.624Z,-4.20
2022-12-01T19:43:54.636Z,-4.10
2022-12-01T19:46:22.469Z,-4.10
2022-12-01T19:48:53.419Z,-4.10
2022-12-01T19:51:21.266Z,-4.10
2022-12-01T19:53:48.421Z,-4.10
2022-12-01T19:56:15.284Z,-4.10
2022-12-01T19:58:42.061Z,-4.20
2022-12-01T20:01:10.601Z,-4.20
2022-12-01T20:03:38.168Z,-4.30
2022-12-01T20:06:05.845Z,-2.00
2022-12-01T20:08:35.669Z,-4.30
2022-12-01T20:11:06.242Z,-4.30
2022-12-01T20:13:33.670Z,-4.40
2022-12-01T20:16:01.239Z,-2.60
2022-12-01T20:18:28.080Z,-4.40
2022-12-01T20:21:08.982Z,-4.50
2022-12-01T20:23:36.043Z,-4.50
2022-12-01T20:26:04.226Z,-3.60
2022-12-01T20:28:31.484Z,-4.60
2022-12-01T20:30:58.516Z,-4.60
2022-12-01T20:33:26.337Z,-2.40
2022-12-01T20:35:55.640Z,-4.60
2022-12-01T20:38:27.285Z,-4.60
2022-12-01T20:40:54.882Z,-4.60
2022-12-01T20:43:22.131Z,-4.60
2022-12-01T20:45:48.969Z,-4.60
2022-12-01T20:48:16.219Z,-4.60
2022-12-01T20:50:43.080Z,-4.60
2022-12-01T20:53:10.031Z,-4.70
2022-12-01T20:55:37.340Z,-4.60
2022-12-01T20:58:04.932Z,-4.60
2022-12-01T21:00:31.750Z,-4.60
2022-12-01T21:02:58.605Z,-4.60
2022-12-01T21:05:25.952Z,-4.60
2022-12-01T21:07:54.473Z,-4.60
2022-12-01T21:10:21.416Z,-4.60
2022-12-01T21:13:07.906Z,-4.60
2022-12-01T21:15:38.687Z,-4.60
2022-12-01T21:18:09.453Z,-4.60
2022-12-01T21:20:39.508Z,-4.50
2022-12-01T21:23:10.094Z,-4.60
2022-12-01T21:25:40.034Z,-4.60
2022-12-01T21:28:28.124Z,-4.60
2022-12-01T21:31:10.946Z,-4.70
2022-12-01T21:33:39.390Z,-4.60
2022-12-01T21:36:24.200Z,-4.70
2022-12-01T21:38:54.113Z,-4.80
2022-12-01T21:41:24.882Z,-4.70
2022-12-01T21:43:52.226Z,-4.70
2022-12-01T21:46:19.309Z,-4.80
2022-12-01T21:48:49.116Z,-4.80
2022-12-01T21:51:23.059Z,-4.00
2022-12-01T21:53:50.362Z,-4.70
2022-12-01T21:56:21.491Z,-4.60
2022-12-01T21:58:48.674Z,-4.90
2022-12-01T22:01:28.661Z,-4.90
2022-12-01T22:04:01.649Z,-4.90
2022-12-01T22:06:37.907Z,-4.90
2022-12-01T22:09:21.375Z,-4.90
2022-12-01T22:11:51.012Z,-4.80
2022-12-01T22:14:22.705Z,-4.40
2022-12-01T22:16:49.412Z,-4.80
2022-12-01T22:19:16.088Z,-4.90
2022-12-01T22:21:46.977Z,-4.90
2022-12-01T22:24:28.038Z,-3.00
2022-12-01T22:27:04.159Z,-4.80
2022-12-01T22:29:35.991Z,-4.80
2022-12-01T22:32:12.006Z,-4.80
2022-12-01T22:34:39.446Z,-4.80
2022-12-01T22:37:21.529Z,-3.60
2022-12-01T22:39:50.166Z,-4.70
2022-12-01T22:42:19.837Z,-4.80
2022-12-01T22:44:46.682Z,-4.70
2022-12-01T22:47:14.595Z,-4.70
2022-12-01T22:49:41.683Z,-4.80
2022-12-01T22:52:18.298Z,-4.70
2022-12-01T22:54:46.160Z,-4.70
2022-12-01T22:57:15.909Z,-4.70
2022-12-01T22:59:43.923Z,-4.70
2022-12-01T23:02:21.098Z,-4.70
2022-12-01T23:04:49.389Z,-4.80
2022-12-01T23:07:35.829Z,-4.80
2022-12-01T23:10:16.259Z,-4.70
2022-12-01T23:12:43.634Z,-4.70
2022-12-01T23:15:28.524Z,-4.70
2022-12-01T23:17:55.403Z,-4.70
2022-12-01T23:22:49.552Z,-4.70
2022-12-01T23:25:17.520Z,-3.50
2022-12-01T23:27:45.006Z,-4.70
2022-12-01T23:30:12.620Z,-4.80
2022-12-01T23:32:39.367Z,-4.80
2022-12-01T23:35:06.971Z,-4.80
2022-12-01T23:37:37.692Z,-4.80
2022-12-01T23:40:14.772Z,-4.80
2022-12-01T23:42:41.813Z,-4.80
2022-12-01T23:45:14.439Z,-4.80
2022-12-01T23:47:41.147Z,-4.80
2022-12-01T23:50:15.072Z,-4.80
2022-12-01T23:52:41.810Z,-4.70
2022-12-01T23:55:14.554Z,-2.40
2022-12-01T23:57:41.257Z,-4.60
